sensor_id;sensor_type;location;lat;lon;timestamp;pressure;altitude;pressure_sealevel;temperature;humidity
55032;BME280;40928;51.076;7.950;2022-08-06T00:02:17;97886.81;;;10.51;86.40
55032;BME280;40928;51.076;7.950;2022-08-06T00:04:45;97883.53;;;10.56;86.21
55032;BME280;40928;51.076;7.950;2022-08-06T00:07:10;97889.13;;;10.47;86.26
55032;BME280;40928;51.076;7.950;2022-08-06T00:09:36;97894.25;;;10.49;86.10
55032;BME280;40928;51.076;7.950;2022-08-06T00:12:04;97896.94;;;10.49;86.22
55032;BME280;40928;51.076;7.950;2022-08-06T00:14:31;97887.09;;;10.43;86.09
55032;BME280;40928;51.076;7.950;2022-08-06T00:16:57;97893.25;;;10.36;86.11
55032;BME280;40928;51.076;7.950;2022-08-06T00:19:23;97899.44;;;10.37;86.21
55032;BME280;40928;51.076;7.950;2022-08-06T00:21:50;97902.53;;;10.34;86.22
55032;BME280;40928;51.076;7.950;2022-08-06T00:24:16;97895.78;;;10.31;86.36
55032;BME280;40928;51.076;7.950;2022-08-06T00:26:42;97897.00;;;10.29;86.46
55032;BME280;40928;51.076;7.950;2022-08-06T00:29:08;97893.16;;;10.25;86.47
55032;BME280;40928;51.076;7.950;2022-08-06T00:31:34;97900.13;;;10.26;86.55
55032;BME280;40928;51.076;7.950;2022-08-06T00:34:00;97907.13;;;10.20;86.73
55032;BME280;40928;51.076;7.950;2022-08-06T00:36:28;97898.13;;;10.14;86.98
55032;BME280;40928;51.076;7.950;2022-08-06T00:38:54;97911.94;;;10.11;87.01
55032;BME280;40928;51.076;7.950;2022-08-06T00:41:21;97908.19;;;10.12;86.92
55032;BME280;40928;51.076;7.950;2022-08-06T00:43:47;97905.53;;;10.12;86.96
55032;BME280;40928;51.076;7.950;2022-08-06T00:46:13;97901.44;;;10.10;86.66
55032;BME280;40928;51.076;7.950;2022-08-06T00:48:38;97901.06;;;10.06;86.61
55032;BME280;40928;51.076;7.950;2022-08-06T00:51:04;97902.13;;;9.98;86.98
55032;BME280;40928;51.076;7.950;2022-08-06T00:53:30;97906.84;;;9.96;86.83
55032;BME280;40928;51.076;7.950;2022-08-06T00:55:55;97912.84;;;9.92;87.13
55032;BME280;40928;51.076;7.950;2022-08-06T00:58:21;97917.56;;;9.89;87.37
55032;BME280;40928;51.076;7.950;2022-08-06T01:00:46;97908.72;;;9.89;87.22
55032;BME280;40928;51.076;7.950;2022-08-06T01:03:12;97912.44;;;9.88;87.65
55032;BME280;40928;51.076;7.950;2022-08-06T01:05:42;97907.31;;;9.86;87.21
55032;BME280;40928;51.076;7.950;2022-08-06T01:08:09;97906.91;;;9.83;87.56
55032;BME280;40928;51.076;7.950;2022-08-06T01:10:34;97910.22;;;9.78;87.38
55032;BME280;40928;51.076;7.950;2022-08-06T01:13:00;97906.34;;;9.74;87.53
55032;BME280;40928;51.076;7.950;2022-08-06T01:15:25;97912.31;;;9.69;87.65
55032;BME280;40928;51.076;7.950;2022-08-06T01:29:11;97910.09;;;9.59;87.47
55032;BME280;40928;51.076;7.950;2022-08-06T01:32:06;97916.06;;;9.55;87.71
55032;BME280;40928;51.076;7.950;2022-08-06T01:34:42;97918.75;;;9.48;87.75
55032;BME280;40928;51.076;7.950;2022-08-06T01:37:14;97916.09;;;9.41;87.89
55032;BME280;40928;51.076;7.950;2022-08-06T01:39:42;97918.16;;;9.39;88.25
55032;BME280;40928;51.076;7.950;2022-08-06T01:42:12;97913.63;;;9.40;88.43
55032;BME280;40928;51.076;7.950;2022-08-06T01:44:41;97908.28;;;9.40;88.21
55032;BME280;40928;51.076;7.950;2022-08-06T01:47:11;97917.94;;;9.41;87.93
55032;BME280;40928;51.076;7.950;2022-08-06T01:49:39;97912.81;;;9.39;88.21
55032;BME280;40928;51.076;7.950;2022-08-06T01:52:07;97918.34;;;9.38;88.04
55032;BME280;40928;51.076;7.950;2022-08-06T01:54:41;97916.31;;;9.33;88.09
55032;BME280;40928;51.076;7.950;2022-08-06T01:57:10;97918.34;;;9.31;87.99
55032;BME280;40928;51.076;7.950;2022-08-06T01:59:38;97919.41;;;9.23;88.21
55032;BME280;40928;51.076;7.950;2022-08-06T02:02:08;97929.44;;;9.21;88.44
55032;BME280;40928;51.076;7.950;2022-08-06T02:04:38;97926.78;;;9.21;88.63
55032;BME280;40928;51.076;7.950;2022-08-06T02:07:08;97926.78;;;9.21;88.25
55032;BME280;40928;51.076;7.950;2022-08-06T02:09:35;97932.09;;;9.21;88.18
55032;BME280;40928;51.076;7.950;2022-08-06T02:12:14;97927.41;;;9.23;88.12
55032;BME280;40928;51.076;7.950;2022-08-06T02:14:45;97922.91;;;9.17;87.87
55032;BME280;40928;51.076;7.950;2022-08-06T02:17:12;97931.31;;;9.14;87.84
55032;BME280;40928;51.076;7.950;2022-08-06T02:19:43;97926.00;;;9.07;88.20
55032;BME280;40928;51.076;7.950;2022-08-06T02:22:09;97927.81;;;9.00;88.18
55032;BME280;40928;51.076;7.950;2022-08-06T02:24:36;97935.22;;;8.98;88.52
55032;BME280;40928;51.076;7.950;2022-08-06T02:27:02;97935.00;;;8.99;88.44
55032;BME280;40928;51.076;7.950;2022-08-06T02:29:29;97940.75;;;8.96;88.27
55032;BME280;40928;51.076;7.950;2022-08-06T02:31:56;97938.50;;;8.93;88.40
55032;BME280;40928;51.076;7.950;2022-08-06T02:34:22;97947.31;;;8.87;88.75
55032;BME280;40928;51.076;7.950;2022-08-06T02:36:56;97947.31;;;8.87;89.02
55032;BME280;40928;51.076;7.950;2022-08-06T02:39:31;97954.47;;;8.87;88.68
55032;BME280;40928;51.076;7.950;2022-08-06T02:42:28;97952.63;;;8.80;88.88
55032;BME280;40928;51.076;7.950;2022-08-06T02:47:43;97951.81;;;8.80;88.66
55032;BME280;40928;51.076;7.950;2022-08-06T02:50:13;97956.13;;;8.81;88.63
55032;BME280;40928;51.076;7.950;2022-08-06T02:52:44;97951.00;;;8.79;88.69
55032;BME280;40928;51.076;7.950;2022-08-06T02:55:15;97947.72;;;8.77;88.31
55032;BME280;40928;51.076;7.950;2022-08-06T02:58:45;97954.69;;;8.72;88.36
55032;BME280;40928;51.076;7.950;2022-08-06T03:00:52;97944.84;;;8.65;88.88
55032;BME280;40928;51.076;7.950;2022-08-06T03:03:23;97950.16;;;8.65;88.83
55032;BME280;40928;51.076;7.950;2022-08-06T03:05:51;97950.16;;;8.65;88.77
55032;BME280;40928;51.076;7.950;2022-08-06T03:08:20;97954.66;;;8.65;89.03
55032;BME280;40928;51.076;7.950;2022-08-06T03:10:48;97953.44;;;8.61;88.84
55032;BME280;40928;51.076;7.950;2022-08-06T03:13:17;97956.28;;;8.59;89.01
55032;BME280;40928;51.076;7.950;2022-08-06T03:15:43;97956.72;;;8.56;88.36
55032;BME280;40928;51.076;7.950;2022-08-06T03:18:11;97962.59;;;8.45;88.78
55032;BME280;40928;51.076;7.950;2022-08-06T03:20:38;97956.22;;;8.32;89.17
55032;BME280;40928;51.076;7.950;2022-08-06T03:23:07;97958.25;;;8.30;89.75
55032;BME280;40928;51.076;7.950;2022-08-06T03:25:38;97959.91;;;8.31;90.00
55032;BME280;40928;51.076;7.950;2022-08-06T03:28:05;97965.22;;;8.31;90.07
55032;BME280;40928;51.076;7.950;2022-08-06T03:30:31;97964.44;;;8.37;89.55
55032;BME280;40928;51.076;7.950;2022-08-06T03:33:00;97967.28;;;8.36;89.33
55032;BME280;40928;51.076;7.950;2022-08-06T03:35:25;97967.28;;;8.36;89.58
55032;BME280;40928;51.076;7.950;2022-08-06T03:37:52;97972.41;;;8.37;89.96
55032;BME280;40928;51.076;7.950;2022-08-06T03:40:19;97974.06;;;8.38;89.75
55032;BME280;40928;51.076;7.950;2022-08-06T03:42:46;97973.44;;;8.36;89.77
55032;BME280;40928;51.076;7.950;2022-08-06T03:45:11;97974.63;;;8.34;89.91
55032;BME280;40928;51.076;7.950;2022-08-06T03:47:41;97975.47;;;8.34;89.86
55032;BME280;40928;51.076;7.950;2022-08-06T03:50:12;97979.16;;;8.33;89.83
55032;BME280;40928;51.076;7.950;2022-08-06T03:52:45;97984.88;;;8.30;89.84
55032;BME280;40928;51.076;7.950;2022-08-06T03:55:19;97985.69;;;8.31;90.01
55032;BME280;40928;51.076;7.950;2022-08-06T03:57:48;97991.84;;;8.31;90.17
55032;BME280;40928;51.076;7.950;2022-08-06T04:00:17;97984.88;;;8.30;90.18
55032;BME280;40928;51.076;7.950;2022-08-06T04:02:49;97992.22;;;8.28;89.99
55032;BME280;40928;51.076;7.950;2022-08-06T04:05:27;97994.47;;;8.25;90.22
55032;BME280;40928;51.076;7.950;2022-08-06T04:07:55;97999.00;;;8.24;90.31
55032;BME280;40928;51.076;7.950;2022-08-06T04:10:24;97988.50;;;8.16;90.28
55032;BME280;40928;51.076;7.950;2022-08-06T04:12:50;98009.00;;;8.22;90.41
55032;BME280;40928;51.076;7.950;2022-08-06T04:15:17;98004.50;;;8.22;90.27
55032;BME280;40928;51.076;7.950;2022-08-06T04:17:45;98007.78;;;8.25;90.40
55032;BME280;40928;51.076;7.950;2022-08-06T04:20:14;98005.31;;;8.23;89.94
55032;BME280;40928;51.076;7.950;2022-08-06T04:22:40;98009.81;;;8.22;89.97
55032;BME280;40928;51.076;7.950;2022-08-06T04:25:06;98013.94;;;8.25;90.19
55032;BME280;40928;51.076;7.950;2022-08-06T04:27:33;98005.31;;;8.23;90.32
55032;BME280;40928;51.076;7.950;2022-08-06T04:30:00;98009.81;;;8.22;90.22
55032;BME280;40928;51.076;7.950;2022-08-06T04:32:26;98014.94;;;8.24;90.07
55032;BME280;40928;51.076;7.950;2022-08-06T04:34:54;98015.97;;;8.23;90.69
55032;BME280;40928;51.076;7.950;2022-08-06T04:37:20;98014.94;;;8.24;90.67
55032;BME280;40928;51.076;7.950;2022-08-06T04:39:46;98017.38;;;8.19;91.02
55032;BME280;40928;51.076;7.950;2022-08-06T04:42:12;98021.88;;;8.18;91.42
55032;BME280;40928;51.076;7.950;2022-08-06T04:44:37;98028.41;;;8.16;91.38
55032;BME280;40928;51.076;7.950;2022-08-06T04:47:04;98029.81;;;8.12;91.69
55032;BME280;40928;51.076;7.950;2022-08-06T04:49:30;98030.25;;;8.08;92.00
55032;BME280;40928;51.076;7.950;2022-08-06T04:51:56;98033.31;;;8.12;92.36
55032;BME280;40928;51.076;7.950;2022-08-06T04:54:21;98038.25;;;8.15;92.29
55032;BME280;40928;51.076;7.950;2022-08-06T04:56:47;98033.56;;;8.17;92.35
55032;BME280;40928;51.076;7.950;2022-08-06T04:59:13;98046.25;;;8.22;92.53
55032;BME280;40928;51.076;7.950;2022-08-06T05:01:38;98048.09;;;8.28;92.98
55032;BME280;40928;51.076;7.950;2022-08-06T05:04:04;98053.44;;;8.35;92.58
55032;BME280;40928;51.076;7.950;2022-08-06T05:09:33;98055.41;;;8.55;92.95
55032;BME280;40928;51.076;7.950;2022-08-06T05:12:04;98063.00;;;8.64;92.74
55032;BME280;40928;51.076;7.950;2022-08-06T05:14:43;98068.13;;;8.73;92.40
55032;BME280;40928;51.076;7.950;2022-08-06T05:17:14;98064.69;;;8.79;92.35
55032;BME280;40928;51.076;7.950;2022-08-06T05:19:48;98070.66;;;8.88;92.23
55032;BME280;40928;51.076;7.950;2022-08-06T05:22:16;98070.66;;;8.94;92.75
55032;BME280;40928;51.076;7.950;2022-08-06T05:24:43;98069.66;;;9.02;92.75
55032;BME280;40928;51.076;7.950;2022-08-06T05:27:10;98072.31;;;9.09;92.70
55032;BME280;40928;51.076;7.950;2022-08-06T05:29:36;98080.13;;;9.17;92.63
55032;BME280;40928;51.076;7.950;2022-08-06T05:32:02;98077.47;;;9.24;92.70
55032;BME280;40928;51.076;7.950;2022-08-06T05:34:28;98086.69;;;9.28;93.12
55032;BME280;40928;51.076;7.950;2022-08-06T05:36:53;98082.19;;;9.35;93.41
55032;BME280;40928;51.076;7.950;2022-08-06T05:39:19;98087.72;;;9.47;93.76
55032;BME280;40928;51.076;7.950;2022-08-06T05:41:46;98091.00;;;9.56;93.71
55032;BME280;40928;51.076;7.950;2022-08-06T05:44:12;98085.47;;;9.64;93.68
55032;BME280;40928;51.076;7.950;2022-08-06T05:46:45;98094.47;;;9.70;93.50
55032;BME280;40928;51.076;7.950;2022-08-06T05:49:27;98097.34;;;9.75;93.53
55032;BME280;40928;51.076;7.950;2022-08-06T05:52:09;98092.22;;;9.80;93.18
55032;BME280;40928;51.076;7.950;2022-08-06T05:59:59;98098.13;;;10.09;93.22
55032;BME280;40928;51.076;7.950;2022-08-06T06:02:27;98099.91;;;10.22;93.56
55032;BME280;40928;51.076;7.950;2022-08-06T06:04:54;98091.06;;;10.35;93.49
55032;BME280;40928;51.076;7.950;2022-08-06T06:07:21;98100.69;;;10.49;93.47
55032;BME280;40928;51.076;7.950;2022-08-06T06:09:48;98102.50;;;10.62;93.53
55032;BME280;40928;51.076;7.950;2022-08-06T06:12:15;98105.53;;;10.73;93.57
55032;BME280;40928;51.076;7.950;2022-08-06T06:14:47;98103.59;;;10.87;93.79
55032;BME280;40928;51.076;7.950;2022-08-06T06:17:41;98107.22;;;10.99;93.41
55032;BME280;40928;51.076;7.950;2022-08-06T06:23:54;98109.72;;;11.26;91.74
55032;BME280;40928;51.076;7.950;2022-08-06T06:26:20;98109.44;;;11.41;91.13
55032;BME280;40928;51.076;7.950;2022-08-06T06:29:07;98109.53;;;11.53;90.42
55032;BME280;40928;51.076;7.950;2022-08-06T06:34:46;98116.31;;;11.81;89.34
55032;BME280;40928;51.076;7.950;2022-08-06T06:37:32;98121.72;;;11.99;88.88
55032;BME280;40928;51.076;7.950;2022-08-06T06:40:17;98112.97;;;12.11;87.58
55032;BME280;40928;51.076;7.950;2022-08-06T06:42:50;98122.34;;;12.20;87.07
55032;BME280;40928;51.076;7.950;2022-08-06T06:45:20;98116.22;;;12.31;86.48
55032;BME280;40928;51.076;7.950;2022-08-06T06:47:58;98119.00;;;12.43;86.12
55032;BME280;40928;51.076;7.950;2022-08-06T06:50:27;98124.28;;;12.50;84.73
55032;BME280;40928;51.076;7.950;2022-08-06T06:52:53;98125.25;;;12.56;85.54
55032;BME280;40928;51.076;7.950;2022-08-06T06:57:55;98130.81;;;12.73;84.76
55032;BME280;40928;51.076;7.950;2022-08-06T07:00:24;98138.97;;;12.78;84.19
55032;BME280;40928;51.076;7.950;2022-08-06T07:02:52;98136.47;;;12.83;83.70
55032;BME280;40928;51.076;7.950;2022-08-06T07:05:20;98144.19;;;12.91;83.72
55032;BME280;40928;51.076;7.950;2022-08-06T07:07:47;98133.75;;;13.02;83.51
55032;BME280;40928;51.076;7.950;2022-08-06T07:10:15;98140.31;;;13.06;82.70
55032;BME280;40928;51.076;7.950;2022-08-06T07:12:44;98146.72;;;13.05;81.80
55032;BME280;40928;51.076;7.950;2022-08-06T07:15:11;98145.50;;;13.01;81.42
55032;BME280;40928;51.076;7.950;2022-08-06T07:17:38;98153.56;;;13.01;81.88
55032;BME280;40928;51.076;7.950;2022-08-06T07:20:07;98149.69;;;12.97;81.51
55032;BME280;40928;51.076;7.950;2022-08-06T07:22:39;98151.31;;;12.98;81.76
55032;BME280;40928;51.076;7.950;2022-08-06T07:25:07;98160.56;;;13.02;81.69
55032;BME280;40928;51.076;7.950;2022-08-06T07:27:40;98158.03;;;13.07;81.08
55032;BME280;40928;51.076;7.950;2022-08-06T07:30:07;98157.09;;;13.13;81.09
55032;BME280;40928;51.076;7.950;2022-08-06T07:32:34;98158.19;;;13.24;79.90
55032;BME280;40928;51.076;7.950;2022-08-06T07:35:01;98158.53;;;13.28;78.94
55032;BME280;40928;51.076;7.950;2022-08-06T07:37:29;98169.88;;;13.30;78.61
55032;BME280;40928;51.076;7.950;2022-08-06T07:39:56;98164.50;;;13.30;78.19
55032;BME280;40928;51.076;7.950;2022-08-06T07:42:24;98167.09;;;13.36;78.54
55032;BME280;40928;51.076;7.950;2022-08-06T07:44:56;98165.06;;;13.50;77.86
55032;BME280;40928;51.076;7.950;2022-08-06T07:47:35;98169.63;;;13.62;76.99
55032;BME280;40928;51.076;7.950;2022-08-06T07:50:03;98172.31;;;13.62;75.01
55032;BME280;40928;51.076;7.950;2022-08-06T07:52:30;98170.34;;;13.57;75.90
55032;BME280;40928;51.076;7.950;2022-08-06T07:54:56;98170.38;;;13.69;76.07
55032;BME280;40928;51.076;7.950;2022-08-06T07:57:24;98170.03;;;13.77;75.26
55032;BME280;40928;51.076;7.950;2022-08-06T07:59:50;98164.66;;;13.77;73.80
55032;BME280;40928;51.076;7.950;2022-08-06T08:02:17;98156.28;;;13.85;74.34
55032;BME280;40928;51.076;7.950;2022-08-06T08:04:43;98166.31;;;13.90;72.71
55032;BME280;40928;51.076;7.950;2022-08-06T08:07:29;98165.25;;;14.03;72.19
55032;BME280;40928;51.076;7.950;2022-08-06T08:09:58;98165.38;;;14.20;72.54
55032;BME280;40928;51.076;7.950;2022-08-06T08:12:24;98167.25;;;14.31;71.34
55032;BME280;40928;51.076;7.950;2022-08-06T08:14:51;98164.69;;;14.37;70.51
55032;BME280;40928;51.076;7.950;2022-08-06T08:17:17;98176.69;;;14.58;69.67
55032;BME280;40928;51.076;7.950;2022-08-06T08:19:43;98167.00;;;14.69;68.79
55032;BME280;40928;51.076;7.950;2022-08-06T08:22:11;98171.78;;;14.79;67.56
55032;BME280;40928;51.076;7.950;2022-08-06T08:24:39;98173.00;;;15.00;66.22
55032;BME280;40928;51.076;7.950;2022-08-06T08:27:06;98161.47;;;15.16;65.59
55032;BME280;40928;51.076;7.950;2022-08-06T08:29:34;98156.91;;;15.34;64.13
55032;BME280;40928;51.076;7.950;2022-08-06T08:32:00;98169.22;;;15.59;62.86
55032;BME280;40928;51.076;7.950;2022-08-06T08:34:26;98167.72;;;15.51;63.79
55032;BME280;40928;51.076;7.950;2022-08-06T08:36:52;98177.94;;;15.66;64.22
55032;BME280;40928;51.076;7.950;2022-08-06T08:39:17;98169.69;;;15.73;63.68
55032;BME280;40928;51.076;7.950;2022-08-06T08:41:50;98162.69;;;15.72;62.90
55032;BME280;40928;51.076;7.950;2022-08-06T08:44:23;98168.09;;;15.72;62.32
55032;BME280;40928;51.076;7.950;2022-08-06T08:46:58;98169.31;;;15.81;61.27
55032;BME280;40928;51.076;7.950;2022-08-06T08:52:09;98168.25;;;15.99;61.58
55032;BME280;40928;51.076;7.950;2022-08-06T08:54:41;98163.34;;;16.13;61.47
55032;BME280;40928;51.076;7.950;2022-08-06T08:57:07;98165.34;;;16.01;59.96
55032;BME280;40928;51.076;7.950;2022-08-06T08:59:35;98163.94;;;15.98;60.56
55032;BME280;40928;51.076;7.950;2022-08-06T09:02:03;98169.88;;;15.83;60.58
55032;BME280;40928;51.076;7.950;2022-08-06T09:04:31;98166.41;;;16.00;61.68
55032;BME280;40928;51.076;7.950;2022-08-06T09:06:57;98163.03;;;15.92;61.32
55032;BME280;40928;51.076;7.950;2022-08-06T09:09:23;98154.06;;;16.04;60.94
55032;BME280;40928;51.076;7.950;2022-08-06T09:11:49;98166.31;;;16.11;60.58
55032;BME280;40928;51.076;7.950;2022-08-06T09:14:15;98169.50;;;15.91;59.40
55032;BME280;40928;51.076;7.950;2022-08-06T09:16:41;98159.91;;;15.66;59.82
55032;BME280;40928;51.076;7.950;2022-08-06T09:19:07;98164.47;;;15.49;59.39
55032;BME280;40928;51.076;7.950;2022-08-06T09:21:32;98166.25;;;15.60;59.52
55032;BME280;40928;51.076;7.950;2022-08-06T09:23:58;98164.03;;;15.86;60.83
55032;BME280;40928;51.076;7.950;2022-08-06T09:26:25;98163.69;;;16.17;60.08
55032;BME280;40928;51.076;7.950;2022-08-06T09:28:50;98162.53;;;16.29;59.06
55032;BME280;40928;51.076;7.950;2022-08-06T09:31:19;98153.19;;;16.37;57.25
55032;BME280;40928;51.076;7.950;2022-08-06T09:34:06;98162.09;;;16.60;58.56
55032;BME280;40928;51.076;7.950;2022-08-06T09:36:44;98164.50;;;16.79;56.95
55032;BME280;40928;51.076;7.950;2022-08-06T09:39:10;98165.00;;;17.20;55.64
55032;BME280;40928;51.076;7.950;2022-08-06T09:41:49;98164.41;;;17.40;55.25
55032;BME280;40928;51.076;7.950;2022-08-06T09:44:16;98167.25;;;17.56;54.00
55032;BME280;40928;51.076;7.950;2022-08-06T09:46:46;98167.75;;;17.25;53.96
55032;BME280;40928;51.076;7.950;2022-08-06T09:49:13;98174.66;;;16.94;54.77
55032;BME280;40928;51.076;7.950;2022-08-06T09:51:40;98176.28;;;16.50;55.57
55032;BME280;40928;51.076;7.950;2022-08-06T09:54:09;98175.38;;;16.44;56.99
55032;BME280;40928;51.076;7.950;2022-08-06T09:56:36;98170.63;;;16.52;56.82
55032;BME280;40928;51.076;7.950;2022-08-06T09:59:09;98170.16;;;16.38;56.36
55032;BME280;40928;51.076;7.950;2022-08-06T10:04:04;98181.47;;;16.18;57.50
55032;BME280;40928;51.076;7.950;2022-08-06T10:06:29;98179.94;;;16.22;57.21
55032;BME280;40928;51.076;7.950;2022-08-06T10:11:38;98174.66;;;16.94;55.79
55032;BME280;40928;51.076;7.950;2022-08-06T10:14:06;98181.03;;;17.04;52.63
55032;BME280;40928;51.076;7.950;2022-08-06T10:19:30;98174.88;;;17.37;53.61
55032;BME280;40928;51.076;7.950;2022-08-06T10:22:03;98180.09;;;17.43;53.34
55032;BME280;40928;51.076;7.950;2022-08-06T10:24:30;98176.50;;;17.65;52.99
55032;BME280;40928;51.076;7.950;2022-08-06T10:26:57;98179.88;;;18.10;51.24
55032;BME280;40928;51.076;7.950;2022-08-06T10:29:24;98175.50;;;18.47;51.05
55032;BME280;40928;51.076;7.950;2022-08-06T10:31:53;98170.91;;;19.06;48.57
55032;BME280;40928;51.076;7.950;2022-08-06T10:34:26;98176.19;;;19.54;47.86
55032;BME280;40928;51.076;7.950;2022-08-06T10:37:01;98177.53;;;19.82;47.34
55032;BME280;40928;51.076;7.950;2022-08-06T10:39:32;98172.66;;;20.15;45.51
55032;BME280;40928;51.076;7.950;2022-08-06T10:42:00;98182.38;;;20.52;44.07
55032;BME280;40928;51.076;7.950;2022-08-06T10:44:26;98179.16;;;20.35;43.59
55032;BME280;40928;51.076;7.950;2022-08-06T10:46:53;98173.19;;;20.38;42.88
55032;BME280;40928;51.076;7.950;2022-08-06T10:49:22;98172.91;;;20.34;43.28
55032;BME280;40928;51.076;7.950;2022-08-06T10:51:48;98177.53;;;21.10;43.32
55032;BME280;40928;51.076;7.950;2022-08-06T10:54:17;98180.03;;;21.51;40.17
55032;BME280;40928;51.076;7.950;2022-08-06T10:56:45;98173.63;;;21.77;39.09
55032;BME280;40928;51.076;7.950;2022-08-06T10:59:13;98175.19;;;21.43;37.89
55032;BME280;40928;51.076;7.950;2022-08-06T11:07:29;98160.81;;;20.92;40.02
55032;BME280;40928;51.076;7.950;2022-08-06T11:12:56;98161.88;;;21.41;40.07
55032;BME280;40928;51.076;7.950;2022-08-06T11:15:23;98163.72;;;20.15;42.00
55032;BME280;40928;51.076;7.950;2022-08-06T11:17:51;98168.84;;;19.80;43.07
55032;BME280;40928;51.076;7.950;2022-08-06T11:22:58;98160.56;;;20.73;41.51
55032;BME280;40928;51.076;7.950;2022-08-06T11:28:13;98148.09;;;20.82;38.91
55032;BME280;40928;51.076;7.950;2022-08-06T11:30:51;98149.31;;;20.24;39.33
55032;BME280;40928;51.076;7.950;2022-08-06T11:34:07;98140.63;;;20.38;40.80
55032;BME280;40928;51.076;7.950;2022-08-06T11:36:09;98142.13;;;20.80;40.27
55032;BME280;40928;51.076;7.950;2022-08-06T12:02:12;98139.91;;;22.07;37.68
55032;BME280;40928;51.076;7.950;2022-08-06T12:07:29;98150.59;;;21.69;38.50
55032;BME280;40928;51.076;7.950;2022-08-06T12:14:56;98147.50;;;21.41;38.21
55032;BME280;40928;51.076;7.950;2022-08-06T12:17:24;98143.16;;;21.40;37.51
55032;BME280;40928;51.076;7.950;2022-08-06T12:19:52;98144.38;;;21.63;38.25
55032;BME280;40928;51.076;7.950;2022-08-06T12:22:19;98137.94;;;21.49;37.22
55032;BME280;40928;51.076;7.950;2022-08-06T12:24:50;98140.63;;;21.88;37.56
55032;BME280;40928;51.076;7.950;2022-08-06T12:27:17;98128.94;;;21.88;37.27
55032;BME280;40928;51.076;7.950;2022-08-06T12:29:44;98121.22;;;22.00;36.01
55032;BME280;40928;51.076;7.950;2022-08-06T12:32:31;98116.69;;;21.90;35.63
55032;BME280;40928;51.076;7.950;2022-08-06T12:35:00;98116.88;;;21.99;35.73
55032;BME280;40928;51.076;7.950;2022-08-06T12:37:33;98117.13;;;22.03;35.03
55032;BME280;40928;51.076;7.950;2022-08-06T12:40:00;98112.81;;;21.97;35.46
55032;BME280;40928;51.076;7.950;2022-08-06T12:42:44;98109.56;;;22.24;34.96
55032;BME280;40928;51.076;7.950;2022-08-06T12:45:10;98114.94;;;22.29;34.73
55032;BME280;40928;51.076;7.950;2022-08-06T12:47:36;98117.59;;;22.34;35.02
55032;BME280;40928;51.076;7.950;2022-08-06T12:50:16;98106.34;;;21.63;35.74
55032;BME280;40928;51.076;7.950;2022-08-06T12:52:42;98117.78;;;21.15;37.47
55032;BME280;40928;51.076;7.950;2022-08-06T12:55:17;98112.47;;;21.34;37.82
55032;BME280;40928;51.076;7.950;2022-08-06T12:57:43;98103.44;;;21.04;36.55
55032;BME280;40928;51.076;7.950;2022-08-06T13:00:09;98101.81;;;21.03;37.08
55032;BME280;40928;51.076;7.950;2022-08-06T13:02:35;98102.72;;;20.93;36.76
55032;BME280;40928;51.076;7.950;2022-08-06T13:05:01;98103.50;;;20.94;37.37
55032;BME280;40928;51.076;7.950;2022-08-06T13:07:26;98103.25;;;21.35;37.11
55032;BME280;40928;51.076;7.950;2022-08-06T13:09:52;98105.81;;;21.56;37.65
55032;BME280;40928;51.076;7.950;2022-08-06T13:12:20;98108.66;;;21.40;36.71
55032;BME280;40928;51.076;7.950;2022-08-06T13:15:12;98101.88;;;20.93;37.33
55032;BME280;40928;51.076;7.950;2022-08-06T13:17:39;98100.78;;;20.94;37.88
55032;BME280;40928;51.076;7.950;2022-08-06T13:20:05;98102.75;;;20.83;36.78
55032;BME280;40928;51.076;7.950;2022-08-06T13:22:31;98099.31;;;21.12;37.95
55032;BME280;40928;51.076;7.950;2022-08-06T13:25:14;98090.91;;;21.13;36.40
55032;BME280;40928;51.076;7.950;2022-08-06T13:27:42;98095.16;;;21.30;37.51
55032;BME280;40928;51.076;7.950;2022-08-06T13:30:09;98091.91;;;21.28;36.57
55032;BME280;40928;51.076;7.950;2022-08-06T13:32:35;98090.97;;;21.43;35.74
55032;BME280;40928;51.076;7.950;2022-08-06T13:35:04;98095.41;;;21.28;35.62
55032;BME280;40928;51.076;7.950;2022-08-06T13:37:51;98084.34;;;21.20;35.76
55032;BME280;40928;51.076;7.950;2022-08-06T13:40:18;98084.38;;;21.14;36.27
55032;BME280;40928;51.076;7.950;2022-08-06T13:42:56;98082.34;;;20.91;36.67
55032;BME280;40928;51.076;7.950;2022-08-06T13:45:26;98092.03;;;21.02;36.27
55032;BME280;40928;51.076;7.950;2022-08-06T13:48:06;98077.16;;;20.94;36.07
55032;BME280;40928;51.076;7.950;2022-08-06T13:50:36;98083.84;;;21.12;36.12
55032;BME280;40928;51.076;7.950;2022-08-06T13:53:03;98079.28;;;21.03;36.05
55032;BME280;40928;51.076;7.950;2022-08-06T13:55:29;98081.31;;;20.81;36.89
55032;BME280;40928;51.076;7.950;2022-08-06T13:57:56;98075.13;;;20.65;37.75
55032;BME280;40928;51.076;7.950;2022-08-06T14:00:22;98075.94;;;20.66;38.67
55032;BME280;40928;51.076;7.950;2022-08-06T14:02:48;98071.81;;;20.84;38.02
55032;BME280;40928;51.076;7.950;2022-08-06T14:05:13;98077.97;;;21.00;37.78
55032;BME280;40928;51.076;7.950;2022-08-06T14:07:39;98071.38;;;21.06;36.90
55032;BME280;40928;51.076;7.950;2022-08-06T14:10:05;98068.25;;;20.89;37.12
55032;BME280;40928;51.076;7.950;2022-08-06T14:12:30;98068.00;;;20.85;36.49
55032;BME280;40928;51.076;7.950;2022-08-06T14:14:56;98071.56;;;20.75;37.41
55032;BME280;40928;51.076;7.950;2022-08-06T14:17:22;98071.31;;;20.72;37.19
55032;BME280;40928;51.076;7.950;2022-08-06T14:19:48;98075.59;;;20.83;37.49
55032;BME280;40928;51.076;7.950;2022-08-06T14:22:15;98079.94;;;20.89;37.66
55032;BME280;40928;51.076;7.950;2022-08-06T14:24:41;98065.47;;;20.99;36.38
55032;BME280;40928;51.076;7.950;2022-08-06T14:27:11;98071.44;;;21.01;36.53
55032;BME280;40928;51.076;7.950;2022-08-06T14:29:37;98076.28;;;21.04;36.65
55032;BME280;40928;51.076;7.950;2022-08-06T14:34:29;98071.06;;;20.63;37.40
55032;BME280;40928;51.076;7.950;2022-08-06T14:36:55;98061.91;;;20.53;36.39
55032;BME280;40928;51.076;7.950;2022-08-06T14:39:21;98073.25;;;20.61;37.38
55032;BME280;40928;51.076;7.950;2022-08-06T14:41:47;98056.09;;;20.71;37.28
55032;BME280;40928;51.076;7.950;2022-08-06T14:44:31;98063.41;;;20.86;36.48
55032;BME280;40928;51.076;7.950;2022-08-06T14:47:16;98062.78;;;20.94;36.19